OIIK  Qazvin  Airport

Qazvin, Iran

Add Bookmark
ICAO OIIK
Type Airport
Status Operational
Latitude
36° 14' 24" N
36.240101
Longitude
50° 2' 49" E
50.047100
Local (GMT +4.5 ) UTC
Jul 25, 2016 08:44 am Jul 25, 2016 04:14
Sunrise-Sunset Local UTC
Begin Civil Twilight 05:41 am 01:11
Sunrise 06:10 am 01:40
Sunset 08:22 pm 15:52
End Civil Twilight 08:51 pm 16:21
VFR
VFR
MVFR
MVFR
IFR
IFR
LIFR
LIFR
Unknown
Unavailable

Current Weather

METAR Observed VFR
OIIK 141900Z 29002KT CAVOK 24/11 Q1015 Thu, Jul 14, 2016 @ 19:00 UTC
(1 Week, 3 Days, 9 Hours, 14 Minutes ago)
Visual Flight Rules
Wind Visibility Conditions
290° at 2 knots (4 kph) 10 km or more
  • No significant weather
Temperatures Readings Precipitation
Current Temp
24°C
75°F
Dewpoint
11°C
52°F
Humidity 44%
Altimeter 29.97" Hg
Sea Level Pressure 1,015 mb
Field Elevation
1,278 m
4,193 ft
None Recorded

Additional weather within a 92.6km radius of OIIK

Map ICAO Location
OIIP 87km SE (126°)
VFR
VFR
MVFR
MVFR
IFR
IFR
LIFR
LIFR
Unknown
Unavailable
-
-

CheckWX.com is intended as a tool to help pilots better visualize weather data. It is not intended as a substitute for an official weather briefing obtained from a Flight Service Station. CheckWX.com does not meet the FAA requirements for an official pre-flight weather briefing. Therefore, it's important that pilots still call and obtain an official FSS pre-flight weather briefing.

© 2007-2016 CheckWX.com
04:14:39 UTC